createdAt,value
2023-05-11T03:41:02.817Z,100.00
2023-05-11T03:44:10.697Z,100.00
2023-05-11T03:47:16.374Z,100.00
2023-05-11T03:50:21.280Z,100.00
2023-05-11T03:53:24.294Z,100.00
2023-05-11T03:56:27.304Z,100.00
2023-05-11T03:59:29.914Z,100.00
2023-05-11T04:02:35.128Z,100.00
2023-05-11T04:05:38.150Z,100.00
2023-05-11T04:08:42.185Z,100.00
2023-05-11T04:11:45.068Z,100.00
2023-05-11T04:14:47.703Z,100.00
2023-05-11T04:17:50.800Z,100.00
2023-05-11T04:20:53.545Z,100.00
2023-05-11T04:23:56.473Z,100.00
2023-05-11T04:26:59.954Z,100.00
2023-05-11T04:30:03.047Z,100.00
2023-05-11T04:33:06.568Z,100.00
2023-05-11T04:36:09.605Z,100.00
2023-05-11T04:39:12.189Z,100.00
2023-05-11T04:42:15.362Z,100.00
2023-05-11T04:45:18.523Z,100.00
2023-05-11T04:48:22.090Z,100.00
2023-05-11T04:51:24.662Z,100.00
2023-05-11T04:54:27.837Z,94.88
2023-05-11T04:57:30.755Z,94.78
2023-05-11T05:00:33.907Z,89.19
2023-05-11T05:03:36.521Z,83.86
2023-05-11T05:06:39.475Z,78.85
2023-05-11T05:09:44.465Z,74.56
2023-05-11T05:12:49.481Z,79.14
2023-05-11T05:15:52.205Z,80.15
2023-05-11T05:18:55.083Z,79.28
2023-05-11T05:21:58.366Z,80.75
2023-05-11T05:25:01.486Z,75.77
2023-05-11T05:28:04.285Z,76.67
2023-05-11T05:31:07.489Z,76.91
2023-05-11T05:34:10.408Z,74.09
2023-05-11T05:37:13.690Z,73.68
2023-05-11T05:40:16.698Z,73.87
2023-05-11T05:43:20.344Z,73.66
2023-05-11T05:46:22.952Z,72.31
2023-05-11T05:49:25.948Z,70.13
2023-05-11T05:52:28.651Z,70.57
2023-05-11T05:55:31.977Z,69.57
2023-05-11T05:58:35.682Z,68.29
2023-05-11T06:01:44.377Z,68.42
2023-05-11T06:04:48.061Z,65.68
2023-05-11T06:08:01.764Z,64.77
2023-05-11T06:11:12.257Z,64.01
2023-05-11T06:14:15.069Z,64.73
2023-05-11T06:17:18.443Z,65.04
2023-05-11T06:20:21.878Z,61.67
2023-05-11T06:23:25.535Z,62.90
2023-05-11T06:26:28.713Z,63.46
2023-05-11T06:29:32.017Z,61.77
2023-05-11T06:32:36.303Z,59.60
2023-05-11T06:35:39.632Z,59.69
2023-05-11T06:38:42.411Z,59.79
2023-05-11T06:41:45.326Z,58.15
2023-05-11T06:44:48.130Z,57.54
2023-05-11T06:47:51.667Z,59.74
2023-05-11T06:50:57.815Z,59.19
2023-05-11T06:54:01.104Z,58.26
2023-05-11T06:57:03.734Z,57.25
2023-05-11T07:00:06.800Z,54.58
2023-05-11T07:03:09.447Z,55.88
2023-05-11T07:06:12.185Z,55.73
2023-05-11T07:09:15.531Z,52.83
2023-05-11T07:12:18.439Z,52.96
2023-05-11T07:15:21.090Z,53.36
2023-05-11T07:18:24.024Z,54.14
2023-05-11T07:21:26.672Z,54.24
2023-05-11T07:24:29.614Z,53.83
2023-05-11T07:27:32.853Z,51.99
2023-05-11T07:30:35.958Z,50.45
2023-05-11T07:33:39.602Z,51.24
2023-05-11T07:36:42.494Z,50.38
2023-05-11T07:39:45.085Z,50.38
2023-05-11T07:42:48.265Z,48.50
2023-05-11T07:45:51.160Z,47.82
2023-05-11T07:49:03.397Z,48.93
2023-05-11T07:52:17.453Z,48.84
2023-05-11T07:55:24.922Z,48.64
2023-05-11T07:58:27.572Z,47.08
2023-05-11T08:01:31.294Z,46.24
2023-05-11T08:04:34.305Z,47.03
2023-05-11T08:07:39.610Z,46.54
2023-05-11T08:10:44.006Z,46.14
2023-05-11T08:13:46.703Z,45.58
2023-05-11T08:16:50.523Z,45.07
2023-05-11T08:19:53.042Z,44.40
2023-05-11T08:22:55.859Z,44.65
2023-05-11T08:25:58.528Z,44.13
2023-05-11T08:29:01.318Z,43.68
2023-05-11T08:32:04.079Z,44.95
2023-05-11T08:35:08.299Z,43.03
2023-05-11T08:38:11.059Z,42.93
2023-05-11T08:41:13.843Z,43.14
2023-05-11T08:44:17.812Z,42.26
2023-05-11T08:47:23.264Z,43.60
2023-05-11T08:50:26.634Z,41.89
2023-05-11T08:53:29.822Z,41.61
2023-05-11T08:56:33.063Z,41.40
2023-05-11T08:59:36.434Z,43.13
2023-05-11T09:02:39.546Z,40.29
2023-05-11T09:05:45.626Z,40.73
2023-05-11T09:08:48.654Z,42.40
2023-05-11T09:11:54.294Z,42.30
2023-05-11T09:15:02.007Z,41.11
2023-05-11T09:18:05.792Z,38.71
2023-05-11T09:21:08.697Z,38.24
2023-05-11T09:24:12.908Z,38.62
2023-05-11T09:27:21.330Z,40.63
2023-05-11T09:30:24.471Z,40.55
2023-05-11T09:33:28.265Z,39.79
2023-05-11T09:36:32.185Z,39.71
2023-05-11T09:39:47.310Z,38.29
2023-05-11T09:43:00.559Z,37.41
2023-05-11T09:46:07.484Z,37.37
2023-05-11T09:49:12.446Z,38.25
2023-05-11T09:52:17.514Z,38.08
2023-05-11T09:55:20.647Z,39.56
2023-05-11T09:58:23.918Z,40.07
2023-05-11T10:01:32.912Z,34.18
2023-05-11T10:04:36.101Z,34.23
2023-05-11T10:07:39.387Z,33.17
2023-05-11T10:10:42.265Z,33.50
2023-05-11T10:13:45.932Z,34.93
2023-05-11T10:16:49.046Z,36.10
2023-05-11T10:19:56.582Z,35.70
2023-05-11T10:22:59.474Z,34.83
2023-05-11T10:26:05.075Z,34.27
2023-05-11T10:29:09.430Z,33.65
2023-05-11T10:32:12.401Z,32.45
2023-05-11T10:35:15.538Z,33.35
2023-05-11T10:38:20.271Z,33.21
2023-05-11T10:41:39.894Z,33.36
2023-05-11T10:45:10.818Z,32.31
2023-05-11T10:48:38.604Z,32.64
2023-05-11T10:51:50.321Z,32.14
2023-05-11T10:55:22.623Z,32.22
2023-05-11T10:58:52.766Z,31.41
2023-05-11T11:01:58.477Z,30.20
2023-05-11T11:05:05.748Z,31.51
2023-05-11T11:08:09.531Z,30.14
2023-05-11T11:11:35.333Z,32.39
2023-05-11T11:15:02.165Z,31.38
2023-05-11T11:18:34.697Z,31.47
2023-05-11T11:21:44.733Z,31.66
2023-05-11T11:24:47.437Z,31.25
2023-05-11T11:27:50.342Z,31.54
2023-05-11T11:31:28.158Z,30.34
2023-05-11T11:34:32.378Z,32.04
2023-05-11T11:38:04.769Z,31.38
2023-05-11T11:41:08.743Z,29.88
2023-05-11T11:44:25.285Z,30.28
2023-05-11T11:47:29.063Z,29.57
2023-05-11T11:50:31.893Z,29.94
2023-05-11T11:53:37.988Z,28.65
2023-05-11T11:56:41.231Z,27.85
2023-05-11T11:59:47.902Z,28.04
2023-05-11T12:02:50.567Z,28.79
2023-05-11T12:05:57.218Z,27.34
2023-05-11T12:09:00.003Z,28.84
2023-05-11T12:12:04.069Z,30.29
2023-05-11T12:15:08.166Z,32.34
2023-05-11T12:18:31.487Z,33.46
2023-05-11T12:21:34.127Z,30.17
2023-05-11T12:24:39.333Z,27.99
2023-05-11T12:27:54.797Z,27.66
2023-05-11T12:30:59.915Z,28.13
2023-05-11T12:34:03.482Z,27.53
2023-05-11T12:37:06.930Z,23.87
2023-05-11T12:40:13.184Z,24.26
2023-05-11T12:43:23.065Z,21.85
2023-05-11T12:46:25.865Z,22.37
2023-05-11T12:49:29.149Z,24.81
2023-05-11T12:52:31.892Z,25.34
2023-05-11T12:55:34.809Z,23.16
2023-05-11T12:58:39.215Z,24.74
2023-05-11T13:01:42.219Z,24.21
2023-05-11T13:04:46.269Z,24.17
2023-05-11T13:08:00.934Z,24.21
2023-05-11T13:11:24.228Z,22.99
2023-05-11T13:14:31.320Z,20.36
2023-05-11T13:17:37.072Z,20.82
2023-05-11T13:20:41.568Z,18.78
2023-05-11T13:23:49.526Z,19.79
2023-05-11T13:26:53.344Z,18.04
2023-05-11T13:29:55.925Z,17.37
2023-05-11T13:32:58.893Z,16.81
2023-05-11T13:36:02.108Z,15.44
2023-05-11T13:39:06.933Z,16.37
2023-05-11T13:42:10.052Z,15.81
2023-05-11T13:45:13.034Z,16.04
2023-05-11T13:48:16.598Z,14.76
2023-05-11T13:51:19.659Z,16.24
2023-05-11T13:54:22.621Z,19.20
2023-05-11T13:57:25.525Z,19.88
2023-05-11T14:00:28.164Z,21.50
2023-05-11T14:03:32.164Z,23.82
2023-05-11T14:06:38.160Z,22.00
2023-05-11T14:09:44.428Z,23.06
2023-05-11T14:12:47.051Z,23.92
2023-05-11T14:15:49.911Z,25.65
2023-05-11T14:18:52.738Z,27.00
2023-05-11T14:21:56.492Z,27.04
2023-05-11T14:24:59.028Z,27.69
2023-05-11T14:28:02.358Z,27.30
2023-05-11T14:31:05.208Z,28.77
2023-05-11T14:34:08.077Z,28.57
2023-05-11T14:37:11.128Z,27.63
2023-05-11T14:40:14.017Z,28.77
2023-05-11T14:43:16.942Z,29.44
2023-05-11T14:46:20.297Z,29.96
2023-05-11T14:49:22.905Z,30.38
2023-05-11T14:52:25.789Z,31.23
2023-05-11T14:55:28.337Z,29.40
2023-05-11T14:58:31.061Z,29.97
2023-05-11T15:01:33.659Z,30.49
2023-05-11T15:04:36.524Z,30.09
2023-05-11T15:07:39.436Z,31.65
2023-05-11T15:10:42.428Z,32.04
2023-05-11T15:13:47.494Z,32.81
2023-05-11T15:16:50.949Z,32.71
2023-05-11T15:19:53.563Z,33.33
2023-05-11T15:22:56.609Z,33.11
2023-05-11T15:25:59.594Z,32.89
